Time;durP1;ratioP1;P1;durP2;ratioP2;P2;SDS_P1;SDS_P2;PMS_P1;PMS_P2;Temp;Humidity;BMP_temperature;BMP_pressure;BME280_temperature;BME280_humidity;BME280_pressure;Samples;Min_cycle;Max_cycle;Signal;HPM_P1;HPM_P2
2023/06/22 00:00:44;;;;;;;12.00;5.18;;;;;;;;;;5033085;28;20099;-74
2023/06/22 00:03:10;;;;;;;11.05;4.80;;;;;;;;;;5037339;28;20032;-72
2023/06/22 00:05:36;;;;;;;9.80;5.15;;;;;;;;;;5034197;28;20067;-73
2023/06/22 00:08:04;;;;;;;8.95;5.05;;;;;;;;;;5033392;28;20176;-73
2023/06/22 00:10:30;;;;;;;10.30;5.32;;;;;;;;;;5033309;28;20060;-73
2023/06/22 00:12:56;;;;;;;9.60;4.50;;;;;;;;;;5032652;28;20030;-73
2023/06/22 00:15:22;;;;;;;10.23;5.13;;;;;;;;;;5033032;28;20147;-74
2023/06/22 00:17:49;;;;;;;10.20;5.22;;;;;;;;;;5033295;28;20542;-72
2023/06/22 00:20:17;;;;;;;9.82;4.80;;;;;;;;;;5033150;28;20072;-75
2023/06/22 00:22:43;;;;;;;10.80;4.55;;;;;;;;;;5032141;28;20028;-74
2023/06/22 00:25:09;;;;;;;7.22;4.50;;;;;;;;;;5033381;28;20033;-73
2023/06/22 00:27:35;;;;;;;9.68;5.40;;;;;;;;;;5033287;28;20037;-72
2023/06/22 00:30:02;;;;;;;8.45;4.60;;;;;;;;;;5033129;28;20300;-72
2023/06/22 00:32:28;;;;;;;8.52;4.47;;;;;;;;;;5032591;28;20281;-72
2023/06/22 00:34:53;;;;;;;10.18;4.50;;;;;;;;;;5032761;28;20041;-73
2023/06/22 00:37:21;;;;;;;9.00;4.60;;;;;;;;;;5032132;28;20119;-72
2023/06/22 00:39:47;;;;;;;10.38;4.95;;;;;;;;;;5033035;28;20382;-74
2023/06/22 00:42:13;;;;;;;7.22;5.13;;;;;;;;;;5032167;28;20030;-72
2023/06/22 00:44:39;;;;;;;10.32;4.97;;;;;;;;;;5032885;28;20451;-72
2023/06/22 00:47:06;;;;;;;9.70;5.40;;;;;;;;;;5032408;28;20034;-72
2023/06/22 00:49:32;;;;;;;9.07;6.22;;;;;;;;;;5032637;28;20018;-74
2023/06/22 00:51:58;;;;;;;11.95;5.53;;;;;;;;;;5031820;28;20025;-74
2023/06/22 00:54:25;;;;;;;8.45;5.07;;;;;;;;;;5032618;28;20207;-73
2023/06/22 00:56:56;;;;;;;10.35;5.43;;;;;;;;;;5032612;28;20060;-73
2023/06/22 00:59:22;;;;;;;7.20;5.07;;;;;;;;;;5032565;28;20021;-72
2023/06/22 01:01:48;;;;;;;7.53;5.03;;;;;;;;;;5031212;28;20061;-72
2023/06/22 01:04:14;;;;;;;8.27;5.20;;;;;;;;;;5032666;28;20032;-72
2023/06/22 01:06:44;;;;;;;7.30;4.95;;;;;;;;;;5032907;28;20029;-72
2023/06/22 01:09:20;;;;;;;7.35;4.75;;;;;;;;;;5032374;28;20030;-74
2023/06/22 01:11:47;;;;;;;9.82;5.05;;;;;;;;;;5031635;28;20079;-72
2023/06/22 01:14:16;;;;;;;8.27;5.05;;;;;;;;;;5033266;28;20083;-73
2023/06/22 01:16:44;;;;;;;10.70;5.68;;;;;;;;;;5033334;28;20022;-73
2023/06/22 01:19:20;;;;;;;7.25;5.05;;;;;;;;;;5033370;28;20116;-74
2023/06/22 01:21:47;;;;;;;6.70;4.72;;;;;;;;;;5032889;28;20072;-72
2023/06/22 01:24:19;;;;;;;9.75;5.05;;;;;;;;;;5033086;28;20026;-73
2023/06/22 01:26:59;;;;;;;9.45;5.45;;;;;;;;;;5033054;28;20028;-73
2023/06/22 01:29:26;;;;;;;10.50;5.25;;;;;;;;;;5033074;28;20037;-73
2023/06/22 01:31:54;;;;;;;7.95;5.03;;;;;;;;;;5032721;28;20022;-73
2023/06/22 01:34:21;;;;;;;9.70;5.35;;;;;;;;;;5032956;28;20052;-72
2023/06/22 01:36:48;;;;;;;7.50;5.57;;;;;;;;;;5033223;28;20030;-73
2023/06/22 01:39:14;;;;;;;8.45;5.57;;;;;;;;;;5032945;28;20037;-72
2023/06/22 01:41:41;;;;;;;10.30;5.40;;;;;;;;;;5032678;28;20037;-73
2023/06/22 01:44:09;;;;;;;9.77;5.68;;;;;;;;;;5032665;28;20514;-73
2023/06/22 01:46:38;;;;;;;8.93;5.45;;;;;;;;;;5032528;28;20410;-73
2023/06/22 01:49:05;;;;;;;10.20;5.60;;;;;;;;;;5031966;28;20029;-73
2023/06/22 01:51:31;;;;;;;6.82;4.97;;;;;;;;;;5032712;28;20032;-73
2023/06/22 01:53:57;;;;;;;9.52;5.50;;;;;;;;;;5032605;28;20390;-73
2023/06/22 01:56:23;;;;;;;8.73;5.90;;;;;;;;;;5032639;28;20022;-73
2023/06/22 01:58:51;;;;;;;8.52;5.72;;;;;;;;;;5032618;28;20446;-72
2023/06/22 02:01:21;;;;;;;10.68;6.47;;;;;;;;;;5032858;28;20034;-73
2023/06/22 02:04:02;;;;;;;8.38;5.85;;;;;;;;;;5032905;28;20486;-72
2023/06/22 02:06:34;;;;;;;9.95;6.32;;;;;;;;;;5033519;28;20033;-73
2023/06/22 02:09:02;;;;;;;10.25;7.25;;;;;;;;;;5032445;28;20506;-73
2023/06/22 02:11:29;;;;;;;14.30;6.82;;;;;;;;;;5032716;28;20029;-73
2023/06/22 02:13:56;;;;;;;11.10;7.18;;;;;;;;;;5032651;28;20033;-74
2023/06/22 02:16:22;;;;;;;10.32;6.78;;;;;;;;;;5032480;28;20509;-72
2023/06/22 02:18:52;;;;;;;10.95;6.30;;;;;;;;;;5032700;28;20394;-71
2023/06/22 02:21:18;;;;;;;10.15;6.45;;;;;;;;;;5031823;28;20025;-74
2023/06/22 02:23:44;;;;;;;9.20;6.80;;;;;;;;;;5032048;28;20227;-72
2023/06/22 02:26:10;;;;;;;11.05;6.07;;;;;;;;;;5032294;28;20391;-74
2023/06/22 02:28:36;;;;;;;13.38;6.65;;;;;;;;;;5028076;28;20029;-74
2023/06/22 02:31:02;;;;;;;11.88;6.75;;;;;;;;;;5031247;28;20115;-74
2023/06/22 02:33:28;;;;;;;8.80;6.28;;;;;;;;;;5030342;28;20049;-73
2023/06/22 02:35:54;;;;;;;12.13;6.18;;;;;;;;;;5030971;28;20021;-74
2023/06/22 02:38:20;;;;;;;8.98;6.32;;;;;;;;;;5030963;28;20033;-73
2023/06/22 02:40:46;;;;;;;8.80;5.97;;;;;;;;;;5031289;28;20036;-74
2023/06/22 02:43:13;;;;;;;8.57;5.82;;;;;;;;;;5030089;28;20037;-74
2023/06/22 02:45:39;;;;;;;13.13;6.50;;;;;;;;;;5031057;28;20475;-73
2023/06/22 02:48:05;;;;;;;10.77;6.80;;;;;;;;;;5030794;28;20037;-74
2023/06/22 02:50:31;;;;;;;10.75;6.43;;;;;;;;;;5030599;28;20026;-74
2023/06/22 02:52:58;;;;;;;9.43;6.40;;;;;;;;;;5029918;28;20110;-74
2023/06/22 02:55:24;;;;;;;11.45;7.43;;;;;;;;;;5031504;28;20013;-74
2023/06/22 02:57:52;;;;;;;9.55;6.22;;;;;;;;;;5029783;28;20083;-75
2023/06/22 03:00:19;;;;;;;9.65;6.40;;;;;;;;;;5029930;28;20112;-75
2023/06/22 03:02:45;;;;;;;11.88;6.55;;;;;;;;;;5030296;28;20025;-72
2023/06/22 03:05:13;;;;;;;7.88;5.45;;;;;;;;;;5030363;28;20026;-71
2023/06/22 03:07:42;;;;;;;10.43;6.15;;;;;;;;;;5030278;28;20103;-73
2023/06/22 03:10:09;;;;;;;9.43;6.63;;;;;;;;;;5029990;28;20077;-71
2023/06/22 03:12:35;;;;;;;12.77;6.90;;;;;;;;;;5029238;28;20021;-72
2023/06/22 03:15:01;;;;;;;10.40;5.18;;;;;;;;;;5030271;28;20096;-72
2023/06/22 03:17:27;;;;;;;9.98;5.85;;;;;;;;;;5030719;28;20103;-72
2023/06/22 03:19:54;;;;;;;10.25;6.10;;;;;;;;;;5030290;28;20130;-73
2023/06/22 03:22:20;;;;;;;10.38;6.72;;;;;;;;;;5029569;28;20048;-72
2023/06/22 03:24:46;;;;;;;9.80;5.93;;;;;;;;;;5029773;28;20025;-72
2023/06/22 03:27:12;;;;;;;8.23;6.00;;;;;;;;;;5030193;28;20033;-72
2023/06/22 03:29:37;;;;;;;9.85;6.30;;;;;;;;;;5030271;28;20030;-73
2023/06/22 03:32:05;;;;;;;12.75;7.10;;;;;;;;;;5029531;28;20422;-72
2023/06/22 03:34:33;;;;;;;10.32;7.00;;;;;;;;;;5033132;28;20537;-72
2023/06/22 03:36:59;;;;;;;11.95;6.32;;;;;;;;;;5033792;28;20390;-72
2023/06/22 03:39:25;;;;;;;9.48;6.18;;;;;;;;;;5033701;28;20030;-72
2023/06/22 03:41:51;;;;;;;11.32;5.93;;;;;;;;;;5033394;28;20082;-72
2023/06/22 03:44:17;;;;;;;8.70;6.22;;;;;;;;;;5034947;28;20491;-72
2023/06/22 03:46:43;;;;;;;8.73;5.97;;;;;;;;;;5034837;28;20052;-72
2023/06/22 03:49:09;;;;;;;12.93;8.35;;;;;;;;;;5034058;28;20415;-72
2023/06/22 03:51:35;;;;;;;11.15;8.02;;;;;;;;;;5033341;28;20338;-73
2023/06/22 03:54:01;;;;;;;15.05;8.13;;;;;;;;;;5033094;28;20064;-76
2023/06/22 03:56:27;;;;;;;14.30;8.13;;;;;;;;;;5033793;28;20485;-72
2023/06/22 03:58:53;;;;;;;12.30;8.50;;;;;;;;;;5033667;28;20053;-72
2023/06/22 04:01:19;;;;;;;13.68;9.20;;;;;;;;;;5033672;28;20376;-72
2023/06/22 04:03:48;;;;;;;12.52;8.52;;;;;;;;;;5033155;28;20044;-72
2023/06/22 04:06:14;;;;;;;16.77;10.25;;;;;;;;;;5033566;28;20103;-73
2023/06/22 04:08:40;;;;;;;21.23;10.55;;;;;;;;;;5033302;28;20134;-71
2023/06/22 04:11:06;;;;;;;19.52;11.10;;;;;;;;;;5033474;28;20402;-71
2023/06/22 04:13:32;;;;;;;18.88;10.30;;;;;;;;;;5033928;28;20044;-73
2023/06/22 04:16:01;;;;;;;18.10;10.07;;;;;;;;;;5033585;28;20057;-73
2023/06/22 04:18:27;;;;;;;14.45;9.75;;;;;;;;;;5033065;28;20022;-71
2023/06/22 04:20:53;;;;;;;14.60;10.02;;;;;;;;;;5033148;28;20497;-72
2023/06/22 04:23:18;;;;;;;17.05;9.70;;;;;;;;;;5032534;28;20022;-72
2023/06/22 04:25:44;;;;;;;23.35;10.60;;;;;;;;;;5033125;28;20067;-73
2023/06/22 04:28:12;;;;;;;14.57;9.70;;;;;;;;;;5032862;28;20108;-72
2023/06/22 04:30:46;;;;;;;15.90;9.57;;;;;;;;;;5032377;28;20040;-73
2023/06/22 04:33:13;;;;;;;14.23;9.35;;;;;;;;;;5030341;28;20040;-74
2023/06/22 04:35:41;;;;;;;15.73;9.27;;;;;;;;;;5039602;28;20079;-75
2023/06/22 04:38:07;;;;;;;14.80;9.45;;;;;;;;;;5033014;28;20108;-76
2023/06/22 04:40:33;;;;;;;14.75;8.75;;;;;;;;;;5032739;28;20033;-74
2023/06/22 04:43:02;;;;;;;15.10;9.02;;;;;;;;;;5039803;28;20154;-73
2023/06/22 04:45:31;;;;;;;18.00;9.52;;;;;;;;;;5035838;28;20025;-73
2023/06/22 04:47:57;;;;;;;15.10;9.45;;;;;;;;;;5033045;28;20029;-74
2023/06/22 04:50:23;;;;;;;19.30;10.18;;;;;;;;;;5034936;28;20037;-74
2023/06/22 04:52:50;;;;;;;17.95;9.50;;;;;;;;;;5034415;28;20060;-73
2023/06/22 04:55:18;;;;;;;16.73;9.10;;;;;;;;;;5038245;28;20423;-73
2023/06/22 04:57:48;;;;;;;21.77;11.20;;;;;;;;;;5033105;28;20014;-72
2023/06/22 05:00:17;;;;;;;14.68;9.02;;;;;;;;;;5033261;28;20498;-74
2023/06/22 05:02:44;;;;;;;15.68;10.05;;;;;;;;;;5030462;28;20497;-73
2023/06/22 05:05:13;;;;;;;16.92;9.27;;;;;;;;;;5033469;28;20029;-72
2023/06/22 05:07:42;;;;;;;13.48;8.65;;;;;;;;;;5032740;28;20021;-72
2023/06/22 05:10:09;;;;;;;11.52;8.18;;;;;;;;;;5037490;28;20029;-74
2023/06/22 05:12:35;;;;;;;16.50;8.20;;;;;;;;;;5031332;28;20025;-70
2023/06/22 05:15:01;;;;;;;18.30;8.75;;;;;;;;;;5030695;28;20029;-71
2023/06/22 05:17:27;;;;;;;14.32;7.88;;;;;;;;;;5042793;28;20529;-73
2023/06/22 05:19:54;;;;;;;15.32;8.20;;;;;;;;;;5034123;28;20028;-73
2023/06/22 05:22:20;;;;;;;13.23;8.05;;;;;;;;;;5033053;28;20032;-73
2023/06/22 05:24:47;;;;;;;17.88;9.23;;;;;;;;;;5036343;28;20135;-72
2023/06/22 05:27:13;;;;;;;15.82;8.82;;;;;;;;;;5033807;28;20087;-74
2023/06/22 05:29:40;;;;;;;16.98;8.82;;;;;;;;;;5035198;28;20033;-74
2023/06/22 05:32:06;;;;;;;16.13;8.07;;;;;;;;;;5034638;28;20060;-73
2023/06/22 05:34:32;;;;;;;11.25;7.57;;;;;;;;;;5040337;28;20021;-73
2023/06/22 05:37:01;;;;;;;14.82;8.93;;;;;;;;;;5033653;28;20029;-73
2023/06/22 05:39:27;;;;;;;17.05;8.52;;;;;;;;;;5033720;28;20025;-72
2023/06/22 05:41:53;;;;;;;14.07;7.95;;;;;;;;;;5032790;28;20427;-73
2023/06/22 05:44:19;;;;;;;13.15;7.55;;;;;;;;;;5034753;28;20090;-72
2023/06/22 05:46:46;;;;;;;14.40;7.05;;;;;;;;;;5041082;28;20032;-73
2023/06/22 05:49:16;;;;;;;14.52;6.60;;;;;;;;;;5035678;28;20518;-76
2023/06/22 05:51:42;;;;;;;13.90;8.32;;;;;;;;;;5037232;28;20036;-74
2023/06/22 05:54:08;;;;;;;12.88;7.55;;;;;;;;;;5038023;28;20018;-72
2023/06/22 05:56:34;;;;;;;17.45;6.45;;;;;;;;;;5031681;28;20017;-72
2023/06/22 05:59:00;;;;;;;10.73;7.47;;;;;;;;;;5037163;28;20043;-76
2023/06/22 06:01:26;;;;;;;12.60;6.35;;;;;;;;;;5035928;28;20095;-76
2023/06/22 06:03:53;;;;;;;12.65;7.45;;;;;;;;;;5040651;28;20206;-74
2023/06/22 06:06:28;;;;;;;14.43;6.80;;;;;;;;;;5033163;28;20033;-72
2023/06/22 06:08:54;;;;;;;12.02;7.15;;;;;;;;;;5040649;28;20494;-72
2023/06/22 06:11:21;;;;;;;13.90;7.70;;;;;;;;;;5028168;28;20025;-73
2023/06/22 06:13:46;;;;;;;14.93;6.72;;;;;;;;;;5031278;28;20017;-71
2023/06/22 06:16:13;;;;;;;13.90;7.28;;;;;;;;;;5032656;28;20407;-73
2023/06/22 06:18:39;;;;;;;13.18;6.28;;;;;;;;;;5032081;28;20098;-73
2023/06/22 06:21:05;;;;;;;12.13;6.43;;;;;;;;;;5031835;28;20517;-73
2023/06/22 06:23:31;;;;;;;16.75;5.70;;;;;;;;;;5032002;28;20032;-73
2023/06/22 06:25:57;;;;;;;12.27;6.13;;;;;;;;;;5038542;28;20100;-73
2023/06/22 06:28:24;;;;;;;10.80;5.50;;;;;;;;;;5032749;28;20021;-74
2023/06/22 06:30:51;;;;;;;9.63;5.75;;;;;;;;;;5033253;28;20549;-74
2023/06/22 06:33:17;;;;;;;9.23;5.40;;;;;;;;;;5034449;28;20029;-74
2023/06/22 06:35:43;;;;;;;8.73;4.22;;;;;;;;;;5035866;28;20480;-76
2023/06/22 06:38:10;;;;;;;6.75;4.32;;;;;;;;;;5034470;28;20136;-73
2023/06/22 06:40:36;;;;;;;8.98;3.85;;;;;;;;;;5031602;28;20033;-74
2023/06/22 06:43:02;;;;;;;9.13;4.90;;;;;;;;;;5031427;28;20034;-74
2023/06/22 06:45:30;;;;;;;8.38;4.00;;;;;;;;;;5032203;28;20028;-78
2023/06/22 06:47:56;;;;;;;5.95;3.25;;;;;;;;;;5031712;28;20021;-74
2023/06/22 06:50:22;;;;;;;14.38;5.72;;;;;;;;;;5031709;28;20057;-73
2023/06/22 06:52:50;;;;;;;7.63;4.45;;;;;;;;;;5035447;28;20518;-74
2023/06/22 06:55:16;;;;;;;10.18;5.03;;;;;;;;;;5033321;28;20022;-76
2023/06/22 06:57:42;;;;;;;9.32;4.10;;;;;;;;;;5031743;28;20022;-74
2023/06/22 07:00:11;;;;;;;19.02;8.18;;;;;;;;;;5031579;28;20026;-76
2023/06/22 07:02:39;;;;;;;19.52;9.50;;;;;;;;;;5031274;28;20152;-75
2023/06/22 07:05:06;;;;;;;17.83;8.90;;;;;;;;;;5031431;28;20033;-73
2023/06/22 07:07:32;;;;;;;22.42;10.18;;;;;;;;;;5031473;28;20021;-74
2023/06/22 07:09:58;;;;;;;44.42;20.42;;;;;;;;;;5030882;28;20041;-73
2023/06/22 07:12:24;;;;;;;17.83;9.75;;;;;;;;;;5031368;28;20096;-74
2023/06/22 07:14:50;;;;;;;25.92;13.80;;;;;;;;;;5031485;28;20064;-74
2023/06/22 07:17:16;;;;;;;20.30;8.85;;;;;;;;;;5032707;28;20479;-76
2023/06/22 07:19:43;;;;;;;12.25;5.57;;;;;;;;;;5031697;28;20116;-73
2023/06/22 07:22:09;;;;;;;8.32;4.20;;;;;;;;;;5031018;28;20025;-74
2023/06/22 07:24:35;;;;;;;14.82;7.13;;;;;;;;;;5031501;28;20026;-73
2023/06/22 07:27:02;;;;;;;9.38;4.55;;;;;;;;;;5031118;28;20052;-73
2023/06/22 07:29:28;;;;;;;9.02;5.47;;;;;;;;;;5031310;28;20036;-72
2023/06/22 07:31:56;;;;;;;16.33;5.57;;;;;;;;;;5031103;28;20018;-72
2023/06/22 07:34:22;;;;;;;10.43;5.10;;;;;;;;;;5032101;28;20026;-78
2023/06/22 07:36:48;;;;;;;11.93;5.13;;;;;;;;;;5032846;28;20028;-75
2023/06/22 07:39:14;;;;;;;10.32;4.47;;;;;;;;;;5031744;28;20029;-75
2023/06/22 07:41:40;;;;;;;6.88;3.92;;;;;;;;;;5031876;28;20029;-75
2023/06/22 07:44:07;;;;;;;12.93;5.95;;;;;;;;;;5033060;28;20103;-72
2023/06/22 07:46:33;;;;;;;11.32;5.30;;;;;;;;;;5032186;28;20359;-74
2023/06/22 07:48:59;;;;;;;6.97;4.53;;;;;;;;;;5031518;28;20087;-73
2023/06/22 07:51:26;;;;;;;9.02;3.95;;;;;;;;;;5031403;28;20030;-73
2023/06/22 07:53:52;;;;;;;8.07;4.55;;;;;;;;;;5031292;28;20029;-73
2023/06/22 07:56:20;;;;;;;5.80;3.42;;;;;;;;;;5029889;28;20104;-71
2023/06/22 07:58:46;;;;;;;9.90;3.67;;;;;;;;;;5031155;28;20025;-72
2023/06/22 08:01:12;;;;;;;10.75;4.65;;;;;;;;;;5031065;28;20049;-74
2023/06/22 08:03:39;;;;;;;6.97;4.03;;;;;;;;;;5030955;28;20030;-72
2023/06/22 08:06:05;;;;;;;6.95;3.90;;;;;;;;;;5033035;28;20441;-73
2023/06/22 08:08:31;;;;;;;6.28;3.63;;;;;;;;;;5031644;28;20025;-74
2023/06/22 08:10:57;;;;;;;6.97;3.80;;;;;;;;;;5031073;28;20041;-74
2023/06/22 08:13:23;;;;;;;10.10;4.68;;;;;;;;;;5030660;28;20037;-74
2023/06/22 08:15:49;;;;;;;6.95;3.83;;;;;;;;;;5030910;28;20451;-73
2023/06/22 08:18:16;;;;;;;9.45;3.60;;;;;;;;;;5030856;28;20387;-73
2023/06/22 08:20:42;;;;;;;5.65;3.30;;;;;;;;;;5033920;28;20482;-74
2023/06/22 08:23:08;;;;;;;8.77;3.70;;;;;;;;;;5034117;28;20040;-75
2023/06/22 08:25:34;;;;;;;5.97;3.28;;;;;;;;;;5034776;28;20553;-73
2023/06/22 08:28:01;;;;;;;9.05;3.70;;;;;;;;;;5034515;28;20087;-72
2023/06/22 08:30:27;;;;;;;10.75;3.53;;;;;;;;;;5034281;28;20030;-74
2023/06/22 08:32:54;;;;;;;4.88;3.13;;;;;;;;;;5035435;28;20637;-74
2023/06/22 08:35:20;;;;;;;13.20;4.50;;;;;;;;;;5037749;28;20048;-76
2023/06/22 08:37:51;;;;;;;7.95;3.50;;;;;;;;;;5038438;28;20526;-75
2023/06/22 08:40:19;;;;;;;7.00;3.33;;;;;;;;;;5038193;28;20021;-76
2023/06/22 08:42:45;;;;;;;11.75;3.50;;;;;;;;;;5035151;28;20394;-78
2023/06/22 08:45:11;;;;;;;6.45;3.80;;;;;;;;;;5035265;28;20029;-78
2023/06/22 08:47:37;;;;;;;10.25;3.67;;;;;;;;;;5035878;28;20487;-77
2023/06/22 08:50:03;;;;;;;7.05;3.30;;;;;;;;;;5036152;28;20129;-76
2023/06/22 08:52:29;;;;;;;6.88;3.35;;;;;;;;;;5034678;28;20148;-73
2023/06/22 08:54:55;;;;;;;6.03;3.33;;;;;;;;;;5034952;28;20061;-73
2023/06/22 08:57:22;;;;;;;6.80;3.22;;;;;;;;;;5034482;28;20018;-73
2023/06/22 08:59:48;;;;;;;3.47;2.67;;;;;;;;;;5034380;28;20109;-73
2023/06/22 09:02:14;;;;;;;9.32;3.40;;;;;;;;;;5033438;28;20064;-73
2023/06/22 09:04:40;;;;;;;6.97;2.83;;;;;;;;;;5033838;28;20021;-73
2023/06/22 09:07:06;;;;;;;7.68;3.00;;;;;;;;;;5033610;28;20383;-75
2023/06/22 09:09:32;;;;;;;8.50;2.95;;;;;;;;;;5033452;28;20057;-73
2023/06/22 09:11:59;;;;;;;5.82;3.15;;;;;;;;;;5033480;28;20096;-73
2023/06/22 09:14:25;;;;;;;4.68;2.50;;;;;;;;;;5033482;28;20029;-75
2023/06/22 09:16:51;;;;;;;6.95;2.65;;;;;;;;;;5033461;28;20029;-74
2023/06/22 09:19:17;;;;;;;8.38;3.20;;;;;;;;;;5033569;28;20025;-73
2023/06/22 09:21:43;;;;;;;4.13;2.85;;;;;;;;;;5033024;28;20395;-73
2023/06/22 09:24:09;;;;;;;6.25;3.20;;;;;;;;;;5034374;28;20079;-73
2023/06/22 09:26:35;;;;;;;5.63;3.22;;;;;;;;;;5035231;28;20096;-74
2023/06/22 09:29:01;;;;;;;7.43;3.20;;;;;;;;;;5037943;28;20065;-73
2023/06/22 09:31:27;;;;;;;12.00;3.95;;;;;;;;;;5036780;28;20018;-73
2023/06/22 09:33:54;;;;;;;6.65;3.08;;;;;;;;;;5037145;28;20024;-74
2023/06/22 09:36:20;;;;;;;5.38;3.75;;;;;;;;;;5033395;28;20042;-72
2023/06/22 09:38:46;;;;;;;6.53;4.22;;;;;;;;;;5033215;28;20026;-73
2023/06/22 09:41:12;;;;;;;7.60;3.00;;;;;;;;;;5032983;28;20036;-73
2023/06/22 09:43:38;;;;;;;4.93;2.40;;;;;;;;;;5032713;28;20521;-74
2023/06/22 09:46:04;;;;;;;6.85;3.40;;;;;;;;;;5032834;28;20026;-73
2023/06/22 09:48:30;;;;;;;9.98;3.80;;;;;;;;;;5032962;28;20022;-73
2023/06/22 09:50:56;;;;;;;8.75;4.20;;;;;;;;;;5032730;28;20105;-74
2023/06/22 09:53:22;;;;;;;8.02;3.50;;;;;;;;;;5032560;28;20025;-73
2023/06/22 09:55:48;;;;;;;6.47;3.58;;;;;;;;;;5034401;28;20079;-73
2023/06/22 09:58:14;;;;;;;10.68;3.63;;;;;;;;;;5034448;28;20033;-73
2023/06/22 10:00:41;;;;;;;7.20;2.92;;;;;;;;;;5035199;28;20372;-73
2023/06/22 10:03:07;;;;;;;6.68;4.00;;;;;;;;;;5034692;28;20079;-73
2023/06/22 10:05:33;;;;;;;6.85;3.17;;;;;;;;;;5035183;28;20100;-73
2023/06/22 10:07:59;;;;;;;6.32;2.95;;;;;;;;;;5034182;28;20090;-74
2023/06/22 10:10:26;;;;;;;7.90;3.40;;;;;;;;;;5033434;28;20514;-73
2023/06/22 10:13:03;;;;;;;8.52;3.70;;;;;;;;;;5032154;28;20160;-73
2023/06/22 10:15:29;;;;;;;9.05;3.67;;;;;;;;;;5032320;28;20032;-74
2023/06/22 10:17:55;;;;;;;7.43;3.40;;;;;;;;;;5032295;28;20383;-73
2023/06/22 10:20:22;;;;;;;7.88;3.53;;;;;;;;;;5032090;28;20106;-73
2023/06/22 10:22:48;;;;;;;7.63;3.70;;;;;;;;;;5032070;28;20026;-72
2023/06/22 10:25:14;;;;;;;7.72;3.08;;;;;;;;;;5032321;28;20109;-72
2023/06/22 10:27:40;;;;;;;7.70;3.65;;;;;;;;;;5032202;28;20071;-71
2023/06/22 10:30:09;;;;;;;7.60;3.47;;;;;;;;;;5029791;28;20025;-73
2023/06/22 10:32:36;;;;;;;9.30;4.35;;;;;;;;;;5030444;28;20025;-72
2023/06/22 10:35:02;;;;;;;7.25;3.42;;;;;;;;;;5031126;28;20021;-72
2023/06/22 10:37:28;;;;;;;9.63;4.30;;;;;;;;;;5031345;28;20037;-71
2023/06/22 10:39:54;;;;;;;9.60;3.78;;;;;;;;;;5031204;28;20021;-72
2023/06/22 10:42:20;;;;;;;6.88;3.80;;;;;;;;;;5031185;28;20080;-72
2023/06/22 10:44:46;;;;;;;6.55;3.83;;;;;;;;;;5032030;28;20022;-73
2023/06/22 10:47:12;;;;;;;5.30;3.47;;;;;;;;;;5031770;28;20033;-73
2023/06/22 10:49:39;;;;;;;7.43;3.70;;;;;;;;;;5032038;28;20029;-71
2023/06/22 10:52:06;;;;;;;8.90;4.00;;;;;;;;;;5032355;28;20017;-72
2023/06/22 10:54:33;;;;;;;5.22;2.97;;;;;;;;;;5035389;28;20059;-73
2023/06/22 10:56:59;;;;;;;6.70;3.85;;;;;;;;;;5035381;28;20025;-73
2023/06/22 10:59:26;;;;;;;9.63;3.40;;;;;;;;;;5035271;28;20525;-72
2023/06/22 11:01:52;;;;;;;6.68;3.72;;;;;;;;;;5033998;28;20387;-73
2023/06/22 11:04:18;;;;;;;6.20;3.30;;;;;;;;;;5034381;28;20034;-73
2023/06/22 11:06:44;;;;;;;6.32;3.92;;;;;;;;;;5032598;28;20026;-72
2023/06/22 11:09:10;;;;;;;6.93;3.97;;;;;;;;;;5031425;28;20040;-72
2023/06/22 11:11:36;;;;;;;6.72;4.50;;;;;;;;;;5031632;28;20018;-73
2023/06/22 11:14:02;;;;;;;7.68;5.00;;;;;;;;;;5031632;28;20351;-72
2023/06/22 11:16:28;;;;;;;5.40;3.63;;;;;;;;;;5031796;28;20029;-73
2023/06/22 11:18:54;;;;;;;6.82;3.53;;;;;;;;;;5031670;28;20029;-74
2023/06/22 11:21:20;;;;;;;9.50;3.40;;;;;;;;;;5032037;28;20037;-73
2023/06/22 11:23:46;;;;;;;5.40;3.47;;;;;;;;;;5031559;28;20061;-73
2023/06/22 11:26:12;;;;;;;6.05;4.15;;;;;;;;;;5031928;28;20041;-75
2023/06/22 11:28:38;;;;;;;5.93;3.20;;;;;;;;;;5031884;28;20026;-74
2023/06/22 11:31:04;;;;;;;5.40;3.50;;;;;;;;;;5030991;28;20077;-74
2023/06/22 11:33:30;;;;;;;6.00;3.42;;;;;;;;;;5032680;28;20024;-74
2023/06/22 11:35:57;;;;;;;7.35;4.03;;;;;;;;;;5031881;28;20021;-71
2023/06/22 11:38:23;;;;;;;6.55;3.70;;;;;;;;;;5031994;28;20022;-73
2023/06/22 11:40:49;;;;;;;8.70;4.28;;;;;;;;;;5031368;28;20029;-73
2023/06/22 11:43:15;;;;;;;6.25;3.80;;;;;;;;;;5030859;28;20455;-73
2023/06/22 11:45:41;;;;;;;5.75;3.70;;;;;;;;;;5031333;28;20032;-75
2023/06/22 11:48:07;;;;;;;9.45;4.40;;;;;;;;;;5032368;28;20104;-74
2023/06/22 11:50:35;;;;;;;6.38;5.30;;;;;;;;;;5032544;28;20033;-79
2023/06/22 11:53:02;;;;;;;7.22;4.30;;;;;;;;;;5033268;28;20027;-73
2023/06/22 11:55:28;;;;;;;8.40;4.20;;;;;;;;;;5034401;28;20105;-75
2023/06/22 12:04:05;;;;;;;9.52;4.53;;;;;;;;;;5032445;28;20442;-73
2023/06/22 12:06:32;;;;;;;7.97;4.15;;;;;;;;;;5034787;28;20026;-74
2023/06/22 12:08:58;;;;;;;6.95;4.35;;;;;;;;;;5034592;28;20033;-75
2023/06/22 12:11:23;;;;;;;6.07;4.18;;;;;;;;;;5034983;28;20060;-74
2023/06/22 12:13:49;;;;;;;7.00;3.83;;;;;;;;;;5034189;28;20026;-73
2023/06/22 12:16:16;;;;;;;11.48;4.50;;;;;;;;;;5033180;28;20501;-74
2023/06/22 12:18:42;;;;;;;7.13;3.92;;;;;;;;;;5034831;28;20017;-74
2023/06/22 12:21:08;;;;;;;7.03;4.13;;;;;;;;;;5037950;28;20053;-75
2023/06/22 12:23:34;;;;;;;5.07;3.47;;;;;;;;;;5034625;28;20036;-74
2023/06/22 12:26:01;;;;;;;9.50;4.32;;;;;;;;;;5034483;28;20021;-73
2023/06/22 12:28:27;;;;;;;10.90;4.60;;;;;;;;;;5033848;28;20030;-74
2023/06/22 12:30:53;;;;;;;12.45;4.82;;;;;;;;;;5033732;28;20052;-73
2023/06/22 12:33:19;;;;;;;12.13;4.57;;;;;;;;;;5032655;28;20103;-74
2023/06/22 12:35:48;;;;;;;7.53;4.78;;;;;;;;;;5035691;28;20410;-74
2023/06/22 12:38:14;;;;;;;4.88;4.10;;;;;;;;;;5038094;28;20021;-73
2023/06/22 12:40:40;;;;;;;7.38;4.95;;;;;;;;;;5039117;28;20040;-75
2023/06/22 12:43:07;;;;;;;6.38;4.45;;;;;;;;;;5035988;28;20364;-75
2023/06/22 12:45:34;;;;;;;9.30;4.35;;;;;;;;;;5034319;28;20022;-74
2023/06/22 12:48:00;;;;;;;13.82;4.60;;;;;;;;;;5037219;28;20041;-74
2023/06/22 12:50:26;;;;;;;7.97;4.43;;;;;;;;;;5033022;28;20029;-74
2023/06/22 12:52:52;;;;;;;7.05;4.00;;;;;;;;;;5034057;28;20033;-76
2023/06/22 12:55:18;;;;;;;9.30;4.60;;;;;;;;;;5035348;28;20025;-74
2023/06/22 12:57:44;;;;;;;9.25;4.70;;;;;;;;;;5033737;28;20028;-73
2023/06/22 13:00:11;;;;;;;8.73;3.78;;;;;;;;;;5033735;28;20421;-76
2023/06/22 13:02:37;;;;;;;10.15;4.15;;;;;;;;;;5033952;28;20391;-74
2023/06/22 13:05:05;;;;;;;8.07;4.38;;;;;;;;;;5036985;28;20033;-74
2023/06/22 13:07:31;;;;;;;9.98;4.20;;;;;;;;;;5038487;28;20028;-73
2023/06/22 13:09:57;;;;;;;11.30;4.63;;;;;;;;;;5033024;28;20066;-72
2023/06/22 13:12:23;;;;;;;9.18;4.22;;;;;;;;;;5033075;28;20068;-74
2023/06/22 13:14:49;;;;;;;6.47;4.13;;;;;;;;;;5033518;28;20031;-74
2023/06/22 13:17:15;;;;;;;6.05;4.60;;;;;;;;;;5034658;28;20057;-74
2023/06/22 13:19:41;;;;;;;6.88;4.80;;;;;;;;;;5034022;28;20487;-74
2023/06/22 13:22:26;;;;;;;6.43;4.38;;;;;;;;;;5032912;28;20025;-74
2023/06/22 13:24:52;;;;;;;6.75;4.65;;;;;;;;;;5033412;28;20079;-75
2023/06/22 13:27:18;;;;;;;6.40;4.72;;;;;;;;;;5033581;28;20033;-74
2023/06/22 13:29:44;;;;;;;9.43;4.68;;;;;;;;;;5031376;28;20029;-75
2023/06/22 13:32:10;;;;;;;12.68;4.97;;;;;;;;;;5033693;28;20421;-74
2023/06/22 13:34:36;;;;;;;9.02;4.72;;;;;;;;;;5035971;28;20024;-74
2023/06/22 13:37:02;;;;;;;7.88;4.75;;;;;;;;;;5033331;28;20028;-76
2023/06/22 13:39:28;;;;;;;7.10;4.78;;;;;;;;;;5034252;28;20025;-74
2023/06/22 13:41:54;;;;;;;5.55;4.70;;;;;;;;;;5032946;28;20037;-76
2023/06/22 13:44:22;;;;;;;10.07;5.18;;;;;;;;;;5033263;28;20360;-73
2023/06/22 13:46:48;;;;;;;7.93;5.45;;;;;;;;;;5033640;28;20025;-74
2023/06/22 13:49:14;;;;;;;7.40;5.50;;;;;;;;;;5031338;28;20128;-76
2023/06/22 13:51:40;;;;;;;6.80;5.35;;;;;;;;;;5032697;28;20097;-75
2023/06/22 13:54:05;;;;;;;10.30;5.80;;;;;;;;;;5034169;28;20394;-75
2023/06/22 13:56:33;;;;;;;15.23;6.88;;;;;;;;;;5033185;28;20022;-75
2023/06/22 13:58:59;;;;;;;8.40;5.00;;;;;;;;;;5030330;28;20029;-74
2023/06/22 14:01:25;;;;;;;7.63;5.57;;;;;;;;;;5032285;28;20037;-73
2023/06/22 14:03:51;;;;;;;11.82;9.60;;;;;;;;;;5031530;28;20021;-74
2023/06/22 14:06:17;;;;;;;7.65;5.93;;;;;;;;;;5032048;28;20113;-73
2023/06/22 14:08:43;;;;;;;7.30;4.88;;;;;;;;;;5032068;28;20034;-74
2023/06/22 14:11:09;;;;;;;11.73;4.65;;;;;;;;;;5031504;28;20378;-74
2023/06/22 14:13:35;;;;;;;9.52;5.13;;;;;;;;;;5031114;28;20087;-73
2023/06/22 14:16:01;;;;;;;6.55;5.60;;;;;;;;;;5032037;28;20022;-73
2023/06/22 14:18:27;;;;;;;8.38;5.82;;;;;;;;;;5036301;28;20043;-73
2023/06/22 14:20:53;;;;;;;7.30;5.22;;;;;;;;;;5035311;28;20084;-75
2023/06/22 14:23:19;;;;;;;8.70;5.75;;;;;;;;;;5031665;28;20029;-74
2023/06/22 14:25:45;;;;;;;8.07;4.95;;;;;;;;;;5032156;28;20495;-74
2023/06/22 14:28:11;;;;;;;11.27;5.07;;;;;;;;;;5031217;28;20022;-75
2023/06/22 14:30:37;;;;;;;10.15;5.50;;;;;;;;;;5030681;28;20671;-75
2023/06/22 14:33:03;;;;;;;8.30;5.10;;;;;;;;;;5031250;28;20171;-74
2023/06/22 14:35:29;;;;;;;8.90;5.15;;;;;;;;;;5030523;28;20077;-73
2023/06/22 14:37:55;;;;;;;12.32;5.20;;;;;;;;;;5031550;28;20025;-73
2023/06/22 14:40:21;;;;;;;8.63;5.30;;;;;;;;;;5031469;28;20487;-73